createdAt,value
2018-05-04T00:02:25.144Z,11.20
2018-05-04T00:04:52.615Z,11.10
2018-05-04T00:07:20.851Z,11.00
2018-05-04T00:09:48.333Z,11.00
2018-05-04T00:12:15.805Z,11.00
2018-05-04T00:14:43.272Z,11.00
2018-05-04T00:17:10.734Z,10.90
2018-05-04T00:19:38.205Z,11.00
2018-05-04T00:22:05.693Z,10.90
2018-05-04T00:24:33.921Z,10.80
2018-05-04T00:27:01.402Z,10.80
2018-05-04T00:29:28.867Z,10.80
2018-05-04T00:31:56.332Z,10.70
2018-05-04T00:34:23.813Z,10.60
2018-05-04T00:36:52.035Z,10.50
2018-05-04T00:39:19.505Z,10.50
2018-05-04T00:41:46.985Z,10.50
2018-05-04T00:44:14.479Z,10.60
2018-05-04T00:46:41.965Z,10.50
2018-05-04T00:49:10.193Z,10.50
2018-05-04T00:51:37.657Z,10.50
2018-05-04T00:54:17.025Z,10.50
2018-05-04T00:56:45.265Z,10.50
2018-05-04T00:59:12.753Z,10.40
2018-05-04T01:01:40.215Z,10.40
2018-05-04T01:04:07.684Z,10.40
2018-05-04T01:06:35.157Z,10.40
2018-05-04T01:09:02.601Z,10.40
2018-05-04T01:11:30.095Z,10.40
2018-05-04T01:13:58.324Z,10.30
2018-05-04T01:16:25.800Z,10.20
2018-05-04T01:18:53.261Z,10.20
2018-05-04T01:21:20.732Z,10.20
2018-05-04T01:23:48.205Z,10.20
2018-05-04T01:26:15.668Z,10.20
2018-05-04T01:28:43.129Z,10.10
2018-05-04T01:31:10.701Z,10.10
2018-05-04T01:33:38.938Z,9.90
2018-05-04T01:36:06.418Z,9.90
2018-05-04T01:38:33.911Z,9.90
2018-05-04T01:41:01.484Z,9.80
2018-05-04T01:43:28.946Z,9.80
2018-05-04T01:45:56.410Z,9.70
2018-05-04T01:48:24.690Z,9.60
2018-05-04T01:50:52.148Z,9.60
2018-05-04T01:53:19.608Z,9.50
2018-05-04T01:55:47.088Z,9.40
2018-05-04T01:58:14.553Z,9.40
2018-05-04T02:00:42.803Z,9.30
2018-05-04T02:03:10.260Z,9.30
2018-05-04T02:05:37.730Z,9.20
2018-05-04T02:08:05.956Z,9.10
2018-05-04T02:10:34.204Z,9.10
2018-05-04T02:13:01.683Z,9.10
2018-05-04T02:15:29.148Z,9.00
2018-05-04T02:17:56.630Z,9.00
2018-05-04T02:20:24.867Z,8.80
2018-05-04T02:22:52.328Z,8.80
2018-05-04T02:25:19.810Z,8.80
2018-05-04T02:27:47.274Z,8.70
2018-05-04T02:30:14.755Z,8.70
2018-05-04T02:32:42.972Z,8.70
2018-05-04T02:35:10.443Z,8.70
2018-05-04T02:37:37.910Z,8.80
2018-05-04T02:40:05.368Z,8.80
2018-05-04T02:42:32.828Z,8.80
2018-05-04T02:45:00.369Z,8.90
2018-05-04T02:47:27.757Z,9.00
2018-05-04T02:49:55.234Z,9.10
2018-05-04T02:52:22.707Z,9.10
2018-05-04T02:54:50.161Z,9.20
2018-05-04T02:57:17.618Z,9.20
2018-05-04T02:59:45.074Z,9.20
2018-05-04T03:02:12.561Z,9.20
2018-05-04T03:04:40.015Z,9.20
2018-05-04T03:07:07.467Z,9.20
2018-05-04T03:09:34.939Z,9.20
2018-05-04T03:12:02.415Z,9.30
2018-05-04T03:14:31.515Z,9.30
2018-05-04T03:16:58.958Z,9.30
2018-05-04T03:19:26.458Z,9.30
2018-05-04T03:21:54.148Z,9.40
2018-05-04T03:24:21.544Z,9.30
2018-05-04T03:26:49.023Z,9.30
2018-05-04T03:29:16.492Z,9.40
2018-05-04T03:31:43.964Z,9.40
2018-05-04T03:34:11.451Z,9.30
2018-05-04T03:36:38.908Z,9.30
2018-05-04T03:39:06.383Z,9.30
2018-05-04T03:41:33.855Z,9.30
2018-05-04T03:44:01.309Z,9.30
2018-05-04T03:46:28.856Z,9.30
2018-05-04T03:48:56.309Z,9.20
2018-05-04T03:51:23.784Z,9.30
2018-05-04T03:53:51.255Z,9.30
2018-05-04T03:56:18.719Z,9.30
2018-05-04T03:58:58.027Z,9.20
2018-05-04T04:01:37.445Z,9.20
2018-05-04T04:04:10.802Z,9.20
2018-05-04T04:06:39.036Z,9.20
2018-05-04T04:09:06.515Z,9.10
2018-05-04T04:11:33.980Z,9.10
2018-05-04T04:14:01.447Z,9.10
2018-05-04T04:16:28.909Z,9.10
2018-05-04T04:18:56.371Z,9.10
2018-05-04T04:21:23.853Z,9.00
2018-05-04T04:23:51.318Z,9.00
2018-05-04T04:26:18.782Z,9.00
2018-05-04T04:28:46.249Z,9.00
2018-05-04T04:31:13.703Z,9.00
2018-05-04T04:33:41.183Z,9.00
2018-05-04T04:36:08.650Z,9.00
2018-05-04T04:38:36.871Z,9.10
2018-05-04T04:41:04.332Z,9.10
2018-05-04T04:43:31.796Z,9.10
2018-05-04T04:45:59.285Z,9.10
2018-05-04T04:48:26.737Z,9.10
2018-05-04T04:50:54.207Z,9.10
2018-05-04T04:53:21.667Z,9.20
2018-05-04T04:55:49.126Z,9.20
2018-05-04T04:58:16.601Z,9.20
2018-05-04T05:00:44.074Z,9.20
2018-05-04T05:03:11.538Z,9.20
2018-05-04T05:05:38.993Z,9.20
2018-05-04T05:08:06.456Z,9.20
2018-05-04T05:10:33.933Z,9.10
2018-05-04T05:13:01.402Z,9.20
2018-05-04T05:15:28.869Z,9.20
2018-05-04T05:17:56.331Z,9.20
2018-05-04T05:20:24.518Z,9.20
2018-05-04T05:22:52.004Z,9.30
2018-05-04T05:25:20.237Z,9.30
2018-05-04T05:27:47.693Z,9.30
2018-05-04T05:30:15.152Z,9.40
2018-05-04T05:32:42.619Z,9.50
2018-05-04T05:35:10.098Z,9.60
2018-05-04T05:37:37.562Z,9.60
2018-05-04T05:40:05.034Z,9.70
2018-05-04T05:42:32.617Z,9.80
2018-05-04T05:45:00.078Z,9.90
2018-05-04T05:47:27.564Z,10.00
2018-05-04T05:49:55.049Z,10.10
2018-05-04T05:52:22.510Z,10.20
2018-05-04T05:54:49.975Z,10.20
2018-05-04T05:57:17.434Z,10.20
2018-05-04T05:59:44.921Z,10.40
2018-05-04T06:02:12.392Z,10.40
2018-05-04T06:04:39.869Z,10.60
2018-05-04T06:07:07.346Z,10.60
2018-05-04T06:09:34.803Z,10.80
2018-05-04T06:12:02.370Z,10.90
2018-05-04T06:14:29.833Z,10.90
2018-05-04T06:16:57.303Z,11.10
2018-05-04T06:19:24.766Z,11.20
2018-05-04T06:21:52.239Z,11.40
2018-05-04T06:24:20.486Z,11.60
2018-05-04T06:26:47.947Z,11.60
2018-05-04T06:29:15.416Z,11.70
2018-05-04T06:31:42.876Z,11.70
2018-05-04T06:34:10.357Z,11.80
2018-05-04T06:36:37.837Z,11.90
2018-05-04T06:39:06.113Z,12.10
2018-05-04T06:41:33.577Z,12.10
2018-05-04T06:44:01.037Z,12.20
2018-05-04T06:46:28.497Z,12.30
2018-05-04T06:48:55.967Z,12.40
2018-05-04T06:51:23.431Z,12.60
2018-05-04T06:53:50.889Z,12.90
2018-05-04T06:56:18.364Z,13.50
2018-05-04T06:58:46.586Z,14.50
2018-05-04T07:01:14.066Z,14.50
2018-05-04T07:03:41.526Z,14.50
2018-05-04T07:06:08.994Z,14.20
2018-05-04T07:08:36.476Z,13.90
2018-05-04T07:11:03.936Z,13.70
2018-05-04T07:13:31.410Z,13.50
2018-05-04T07:15:58.867Z,13.30
2018-05-04T07:18:26.346Z,13.20
2018-05-04T07:20:53.818Z,13.20
2018-05-04T07:23:21.271Z,13.20
2018-05-04T07:25:48.754Z,13.20
2018-05-04T07:28:16.996Z,13.40
2018-05-04T07:30:44.476Z,13.30
2018-05-04T07:33:11.942Z,13.50
2018-05-04T07:35:39.397Z,13.50
2018-05-04T07:38:06.877Z,13.60
2018-05-04T07:40:34.323Z,13.70
2018-05-04T07:43:01.786Z,13.70
2018-05-04T07:45:29.235Z,13.80
2018-05-04T07:47:56.690Z,13.80
2018-05-04T07:50:24.921Z,13.90
2018-05-04T07:52:53.138Z,13.90
2018-05-04T07:55:20.668Z,13.90
2018-05-04T07:57:48.035Z,14.00
2018-05-04T08:00:15.486Z,14.10
2018-05-04T08:02:43.717Z,14.30
2018-05-04T08:05:11.164Z,14.30
2018-05-04T08:07:38.625Z,14.30
2018-05-04T08:10:06.095Z,14.40
2018-05-04T08:12:33.549Z,14.40
2018-05-04T08:15:01.026Z,14.50
2018-05-04T08:17:28.492Z,14.60
2018-05-04T08:19:55.934Z,14.70
2018-05-04T08:22:23.394Z,14.80
2018-05-04T08:24:50.853Z,14.90
2018-05-04T08:27:18.380Z,15.00
2018-05-04T08:29:45.771Z,15.10
2018-05-04T08:32:14.014Z,15.10
2018-05-04T08:34:41.462Z,15.10
2018-05-04T08:37:08.914Z,15.20
2018-05-04T08:39:36.376Z,15.10
2018-05-04T08:42:03.824Z,15.10
2018-05-04T08:44:31.283Z,15.20
2018-05-04T08:46:58.747Z,15.20
2018-05-04T08:49:26.188Z,15.30
2018-05-04T08:51:54.416Z,15.40
2018-05-04T08:54:21.933Z,15.40
2018-05-04T08:56:49.323Z,15.40
2018-05-04T08:59:16.785Z,15.50
2018-05-04T09:01:44.248Z,15.60
2018-05-04T09:04:11.740Z,15.60
2018-05-04T09:06:39.210Z,15.60
2018-05-04T09:09:06.652Z,15.70
2018-05-04T09:11:34.109Z,15.80
2018-05-04T09:14:01.561Z,15.80
2018-05-04T09:16:29.035Z,15.90
2018-05-04T09:18:56.493Z,15.90
2018-05-04T09:21:23.943Z,16.00
2018-05-04T09:23:51.396Z,16.10
2018-05-04T09:26:19.607Z,16.20
2018-05-04T09:28:47.079Z,16.20
2018-05-04T09:31:14.533Z,16.30
2018-05-04T09:33:41.998Z,16.30
2018-05-04T09:36:09.445Z,16.40
2018-05-04T09:38:36.905Z,16.40
2018-05-04T09:41:05.121Z,16.70
2018-05-04T09:43:32.617Z,16.70
2018-05-04T09:46:00.035Z,16.80
2018-05-04T09:48:27.490Z,16.90
2018-05-04T09:50:54.941Z,17.10
2018-05-04T09:53:22.423Z,17.10
2018-05-04T09:55:49.957Z,17.20
2018-05-04T09:58:17.352Z,17.20
2018-05-04T10:00:44.799Z,17.20
2018-05-04T10:03:12.266Z,17.20
2018-05-04T10:05:39.748Z,17.20
2018-05-04T10:08:07.216Z,17.10
2018-05-04T10:10:34.680Z,17.10
2018-05-04T10:13:02.121Z,17.10
2018-05-04T10:15:29.588Z,17.20
2018-05-04T10:17:57.061Z,17.30
2018-05-04T10:20:24.521Z,17.20
2018-05-04T10:22:51.976Z,17.30
2018-05-04T10:25:19.430Z,17.40
2018-05-04T10:27:46.878Z,17.40
2018-05-04T10:30:15.143Z,17.40
2018-05-04T10:32:42.600Z,17.40
2018-05-04T10:35:10.056Z,17.40
2018-05-04T10:37:37.514Z,17.40
2018-05-04T10:40:04.978Z,17.50
2018-05-04T10:42:32.443Z,17.50
2018-05-04T10:44:59.902Z,17.60
2018-05-04T10:47:27.355Z,17.70
2018-05-04T10:49:54.809Z,17.70
2018-05-04T10:52:22.271Z,17.80
2018-05-04T10:54:49.739Z,17.90
2018-05-04T10:57:17.304Z,17.90
2018-05-04T10:59:44.665Z,18.00
2018-05-04T11:02:12.111Z,18.10
2018-05-04T11:04:39.576Z,18.10
2018-05-04T11:07:07.039Z,18.20
2018-05-04T11:09:34.508Z,18.20
2018-05-04T11:12:02.056Z,18.20
2018-05-04T11:14:29.428Z,18.30
2018-05-04T11:16:56.883Z,18.40
2018-05-04T11:19:24.413Z,18.40
2018-05-04T11:21:51.837Z,18.30
2018-05-04T11:24:19.309Z,18.40
2018-05-04T11:26:46.773Z,18.50
2018-05-04T11:29:14.234Z,18.50
2018-05-04T11:31:41.715Z,18.40
2018-05-04T11:34:09.173Z,18.50
2018-05-04T11:36:37.397Z,18.40
2018-05-04T11:39:05.623Z,18.50
2018-05-04T11:41:33.860Z,18.50
2018-05-04T11:44:02.106Z,18.60
2018-05-04T11:46:29.566Z,18.50
2018-05-04T11:48:57.032Z,18.60
2018-05-04T11:51:24.491Z,18.60
2018-05-04T11:53:51.963Z,18.70
2018-05-04T11:56:19.445Z,18.80
2018-05-04T11:58:47.668Z,18.90
2018-05-04T12:01:15.133Z,18.80
2018-05-04T12:03:42.619Z,18.90
2018-05-04T12:06:10.099Z,18.90
2018-05-04T12:08:37.588Z,18.90
2018-05-04T12:11:05.827Z,19.00
2018-05-04T12:13:33.304Z,18.90
2018-05-04T12:16:00.794Z,19.00
2018-05-04T12:18:29.049Z,19.00
2018-05-04T12:20:56.542Z,19.00
2018-05-04T12:23:24.770Z,19.10
2018-05-04T12:25:52.223Z,19.00
2018-05-04T12:28:19.685Z,19.20
2018-05-04T12:30:47.143Z,19.20
2018-05-04T12:33:14.631Z,19.30
2018-05-04T12:35:42.859Z,19.30
2018-05-04T12:38:11.094Z,19.40
2018-05-04T12:40:38.576Z,19.40
2018-05-04T12:43:07.557Z,19.50
2018-05-04T12:45:35.075Z,19.40
2018-05-04T12:48:02.556Z,19.50
2018-05-04T12:50:30.042Z,19.50
2018-05-04T12:52:57.510Z,19.50
2018-05-04T12:55:24.986Z,19.60
2018-05-04T12:57:52.480Z,19.60
2018-05-04T13:00:20.734Z,19.60
2018-05-04T13:02:48.571Z,19.60
2018-05-04T13:05:16.057Z,19.50
2018-05-04T13:07:43.547Z,19.60
2018-05-04T13:10:11.049Z,19.70
2018-05-04T13:12:38.860Z,19.70
2018-05-04T13:15:06.350Z,19.80
2018-05-04T13:17:33.832Z,19.90
2018-05-04T13:20:02.080Z,19.80
2018-05-04T13:22:30.384Z,19.80
2018-05-04T13:24:57.943Z,19.70
2018-05-04T13:27:25.464Z,19.80
2018-05-04T13:29:52.961Z,19.80
2018-05-04T13:32:20.436Z,19.80
2018-05-04T13:34:47.934Z,19.80
2018-05-04T13:37:15.435Z,19.80
2018-05-04T13:39:42.940Z,19.90
2018-05-04T13:42:11.192Z,19.80
2018-05-04T13:44:39.460Z,19.80
2018-05-04T13:47:06.939Z,19.80
2018-05-04T13:49:34.428Z,19.80
2018-05-04T13:52:02.678Z,20.00
2018-05-04T13:54:30.162Z,20.00
2018-05-04T13:56:57.638Z,19.90
2018-05-04T13:59:25.910Z,19.90
2018-05-04T14:01:53.387Z,19.90
2018-05-04T14:04:21.629Z,20.00
2018-05-04T14:06:49.152Z,19.90
2018-05-04T14:09:16.629Z,20.00
2018-05-04T14:11:45.416Z,20.00
2018-05-04T14:14:12.900Z,20.00
2018-05-04T14:16:40.387Z,20.00
2018-05-04T14:19:07.869Z,20.10
2018-05-04T14:21:35.395Z,20.10
2018-05-04T14:24:03.240Z,20.10
2018-05-04T14:26:30.720Z,20.20
2018-05-04T14:28:58.204Z,20.20
2018-05-04T14:31:25.690Z,20.20
2018-05-04T14:33:53.968Z,20.20
2018-05-04T14:36:21.518Z,20.30
2018-05-04T14:38:49.026Z,20.20
2018-05-04T14:41:17.285Z,20.20
2018-05-04T14:43:44.785Z,20.30
2018-05-04T14:46:12.284Z,20.20
2018-05-04T14:48:40.562Z,20.30
2018-05-04T14:51:08.052Z,20.20
2018-05-04T14:53:36.329Z,20.30
2018-05-04T14:56:03.823Z,20.30
2018-05-04T14:58:32.121Z,20.30
2018-05-04T15:00:59.601Z,20.30
2018-05-04T15:03:27.136Z,20.30
2018-05-04T15:05:55.400Z,20.30
2018-05-04T15:08:22.898Z,20.30
2018-05-04T15:10:50.388Z,20.40
2018-05-04T15:13:17.918Z,20.40
2018-05-04T15:15:45.997Z,20.40
2018-05-04T15:18:14.244Z,20.40
2018-05-04T15:20:41.732Z,20.40
2018-05-04T15:23:09.977Z,20.40
2018-05-04T15:25:38.250Z,20.40
2018-05-04T15:28:05.742Z,20.40
2018-05-04T15:30:33.221Z,20.40
2018-05-04T15:33:01.478Z,20.40
2018-05-04T15:35:30.021Z,20.40
2018-05-04T15:37:57.552Z,20.30
2018-05-04T15:40:25.845Z,20.30
2018-05-04T15:42:53.304Z,20.30
2018-05-04T15:45:21.597Z,20.30
2018-05-04T15:47:49.112Z,20.30
2018-05-04T15:50:22.286Z,20.30
2018-05-04T15:52:49.788Z,20.40
2018-05-04T15:55:17.350Z,20.30
2018-05-04T15:57:45.619Z,20.40
2018-05-04T16:00:14.273Z,20.30
2018-05-04T16:02:41.803Z,20.30
2018-05-04T16:05:10.093Z,20.40
2018-05-04T16:07:38.716Z,20.40
2018-05-04T16:10:06.259Z,20.50
2018-05-04T16:12:34.557Z,20.40
2018-05-04T16:15:03.040Z,20.40
2018-05-04T16:17:30.526Z,20.40
2018-05-04T16:19:58.026Z,20.40
2018-05-04T16:22:25.564Z,20.40
2018-05-04T16:24:53.078Z,20.30
2018-05-04T16:27:21.324Z,20.30
2018-05-04T16:29:52.489Z,20.30
2018-05-04T16:32:20.797Z,20.20
2018-05-04T16:34:50.077Z,20.30
2018-05-04T16:37:17.637Z,20.20
2018-05-04T16:39:45.138Z,20.30
2018-05-04T16:42:13.480Z,20.30
2018-05-04T16:44:40.988Z,20.30
2018-05-04T16:47:14.180Z,20.30
2018-05-04T16:49:41.714Z,20.30
2018-05-04T16:52:09.533Z,20.20
2018-05-04T16:54:37.029Z,20.20
2018-05-04T16:57:05.487Z,20.30
2018-05-04T16:59:33.280Z,20.30
2018-05-04T17:02:01.548Z,20.30
2018-05-04T17:04:30.462Z,20.30
2018-05-04T17:06:57.931Z,20.30
2018-05-04T17:09:25.408Z,20.40
2018-05-04T17:11:52.900Z,20.70
2018-05-04T17:14:21.138Z,21.20
2018-05-04T17:16:48.602Z,21.10
2018-05-04T17:19:16.845Z,21.40
2018-05-04T17:21:44.321Z,21.30
2018-05-04T17:24:11.816Z,21.50
2018-05-04T17:26:39.276Z,21.40
2018-05-04T17:29:06.749Z,21.40
2018-05-04T17:31:34.223Z,21.50
2018-05-04T17:34:01.721Z,21.50
2018-05-04T17:36:29.958Z,21.40
2018-05-04T17:38:57.446Z,21.40
2018-05-04T17:41:25.677Z,21.20
2018-05-04T17:43:53.138Z,21.20
2018-05-04T17:46:20.606Z,21.20
2018-05-04T17:48:48.085Z,20.90
2018-05-04T17:51:15.545Z,20.70
2018-05-04T17:53:43.789Z,20.30
2018-05-04T17:56:11.262Z,20.30
2018-05-04T17:58:38.724Z,20.10
2018-05-04T18:01:06.313Z,19.90
2018-05-04T18:03:33.802Z,19.80
2018-05-04T18:06:01.302Z,19.60
2018-05-04T18:08:28.781Z,19.50
2018-05-04T18:10:56.260Z,19.40
2018-05-04T18:13:23.734Z,19.20
2018-05-04T18:15:51.217Z,19.10
2018-05-04T18:18:18.687Z,19.00
2018-05-04T18:20:46.172Z,18.80
2018-05-04T18:23:14.444Z,18.70
2018-05-04T18:25:41.947Z,18.60
2018-05-04T18:28:09.417Z,18.60
2018-05-04T18:30:36.906Z,18.50
2018-05-04T18:33:04.459Z,18.40
2018-05-04T18:35:31.862Z,18.30
2018-05-04T18:38:00.114Z,18.10
2018-05-04T18:40:27.592Z,18.10
2018-05-04T18:42:55.063Z,18.00
2018-05-04T18:45:22.560Z,17.90
2018-05-04T18:47:50.025Z,17.80
2018-05-04T18:50:17.492Z,17.70
2018-05-04T18:52:44.974Z,17.60
2018-05-04T18:55:12.443Z,17.50
2018-05-04T18:57:39.904Z,17.40
2018-05-04T19:00:07.411Z,17.30
2018-05-04T19:02:40.549Z,17.20
2018-05-04T19:05:08.030Z,17.10
2018-05-04T19:07:35.506Z,17.00
2018-05-04T19:10:02.969Z,17.00
2018-05-04T19:12:30.452Z,16.90
2018-05-04T19:14:57.947Z,16.90
2018-05-04T19:17:26.172Z,16.90
2018-05-04T19:19:53.664Z,16.90
2018-05-04T19:22:21.140Z,16.80
2018-05-04T19:24:49.379Z,16.80
2018-05-04T19:27:16.845Z,16.80
2018-05-04T19:29:44.323Z,16.80
2018-05-04T19:32:11.800Z,16.80
2018-05-04T19:34:39.312Z,16.70
2018-05-04T19:37:07.539Z,16.60
2018-05-04T19:39:35.011Z,16.60
2018-05-04T19:42:02.586Z,16.60
2018-05-04T19:44:30.780Z,16.50
2018-05-04T19:46:58.247Z,16.50
2018-05-04T19:49:26.478Z,16.40
2018-05-04T19:51:53.976Z,16.40
2018-05-04T19:54:22.212Z,16.30
2018-05-04T19:56:49.703Z,16.30
2018-05-04T19:59:17.185Z,16.40
2018-05-04T20:01:44.653Z,16.40
2018-05-04T20:04:12.875Z,16.30
2018-05-04T20:06:40.345Z,16.30
2018-05-04T20:09:07.819Z,16.20
2018-05-04T20:11:35.311Z,16.20
2018-05-04T20:14:02.801Z,16.20
2018-05-04T20:16:31.029Z,16.10
2018-05-04T20:18:58.556Z,16.10
2018-05-04T20:21:25.977Z,16.10
2018-05-04T20:23:53.438Z,16.00
2018-05-04T20:26:20.916Z,16.00
2018-05-04T20:28:48.423Z,15.90
2018-05-04T20:31:16.617Z,15.80
2018-05-04T20:33:44.092Z,15.80
2018-05-04T20:36:11.553Z,15.80
2018-05-04T20:38:39.028Z,15.80
2018-05-04T20:41:06.506Z,15.70
2018-05-04T20:43:33.969Z,15.70
2018-05-04T20:46:01.453Z,15.70
2018-05-04T20:48:29.675Z,15.60
2018-05-04T20:50:57.150Z,15.60
2018-05-04T20:53:24.623Z,15.50
2018-05-04T20:55:52.091Z,15.50
2018-05-04T20:58:20.339Z,15.40
2018-05-04T21:00:47.787Z,15.30
2018-05-04T21:03:15.269Z,15.30
2018-05-04T21:05:42.728Z,15.30
2018-05-04T21:08:10.219Z,15.20
2018-05-04T21:10:37.693Z,15.10
2018-05-04T21:13:05.156Z,15.60
2018-05-04T21:15:32.625Z,15.00
2018-05-04T21:18:00.083Z,14.90
2018-05-04T21:20:27.567Z,14.90
2018-05-04T21:22:55.035Z,14.80
2018-05-04T21:25:23.285Z,14.70
2018-05-04T21:27:50.742Z,14.70
2018-05-04T21:30:18.210Z,14.70
2018-05-04T21:32:45.677Z,14.70
2018-05-04T21:35:13.139Z,14.60
2018-05-04T21:37:40.625Z,14.50
2018-05-04T21:40:08.084Z,14.40
2018-05-04T21:42:35.591Z,14.30
2018-05-04T21:45:03.058Z,14.30
2018-05-04T21:47:30.525Z,14.20
2018-05-04T21:49:57.991Z,14.20
2018-05-04T21:52:25.460Z,14.30
2018-05-04T21:54:52.947Z,14.30
2018-05-04T21:57:20.410Z,14.30
2018-05-04T21:59:47.899Z,14.30
2018-05-04T22:02:15.363Z,14.30
2018-05-04T22:04:42.865Z,14.30
2018-05-04T22:07:11.095Z,14.20
2018-05-04T22:09:38.559Z,14.30
2018-05-04T22:12:06.035Z,14.20
2018-05-04T22:14:33.491Z,14.20
2018-05-04T22:17:00.959Z,14.10
2018-05-04T22:19:28.413Z,14.10
2018-05-04T22:21:55.894Z,14.10
2018-05-04T22:24:24.145Z,13.90
2018-05-04T22:26:51.599Z,13.90
2018-05-04T22:29:19.058Z,13.90
2018-05-04T22:31:46.509Z,13.80
2018-05-04T22:34:13.989Z,13.80
2018-05-04T22:36:41.448Z,13.60
2018-05-04T22:39:08.927Z,13.70
2018-05-04T22:41:36.384Z,13.60
2018-05-04T22:44:03.845Z,13.50
2018-05-04T22:46:31.311Z,13.50
2018-05-04T22:48:58.780Z,13.40
2018-05-04T22:51:26.263Z,13.40
2018-05-04T22:53:53.733Z,13.30
2018-05-04T22:56:21.215Z,13.40
2018-05-04T22:58:49.436Z,13.40
2018-05-04T23:01:16.910Z,13.40
2018-05-04T23:03:44.376Z,13.40
2018-05-04T23:06:11.837Z,13.30
2018-05-04T23:08:39.312Z,13.30
2018-05-04T23:11:06.779Z,13.30
2018-05-04T23:13:34.262Z,13.30
2018-05-04T23:16:01.714Z,13.20
2018-05-04T23:18:29.183Z,13.20
2018-05-04T23:20:56.689Z,13.20
2018-05-04T23:23:24.123Z,13.20
2018-05-04T23:25:52.373Z,13.00
2018-05-04T23:28:19.831Z,13.00
2018-05-04T23:30:47.312Z,12.90
2018-05-04T23:33:14.775Z,12.80
2018-05-04T23:35:42.256Z,12.80
2018-05-04T23:38:09.716Z,12.80
2018-05-04T23:40:37.179Z,12.80
2018-05-04T23:43:05.415Z,12.70
2018-05-04T23:45:32.877Z,12.80
2018-05-04T23:48:00.359Z,12.70
2018-05-04T23:50:27.821Z,12.60
2018-05-04T23:52:55.313Z,12.60
2018-05-04T23:55:22.771Z,12.60
2018-05-04T23:57:50.237Z,12.70
